createdAt,value
2024-01-15T00:00:02.643Z,85.52
2024-01-15T00:00:13.002Z,85.52
2024-01-15T00:00:23.452Z,85.52
2024-01-15T00:00:33.776Z,85.52
2024-01-15T00:00:44.057Z,85.52
2024-01-15T00:00:54.409Z,85.52
2024-01-15T00:01:04.824Z,85.52
2024-01-15T00:01:15.190Z,85.52
2024-01-15T00:01:25.462Z,85.52
2024-01-15T00:01:35.732Z,85.52
2024-01-15T00:01:46.024Z,85.63
2024-01-15T00:01:56.283Z,85.63
2024-01-15T00:02:06.736Z,85.63
2024-01-15T00:02:17.221Z,85.63
2024-01-15T00:02:27.660Z,85.63
2024-01-15T00:02:38.118Z,85.63
2024-01-15T00:02:48.564Z,85.63
2024-01-15T00:02:59.038Z,85.52
2024-01-15T00:03:09.522Z,85.52
2024-01-15T00:03:20.073Z,85.42
2024-01-15T00:03:30.375Z,85.42
2024-01-15T00:03:40.733Z,85.42
2024-01-15T00:03:51.015Z,85.42
2024-01-15T00:04:01.538Z,85.42
2024-01-15T00:04:11.635Z,85.42
2024-01-15T00:04:21.911Z,85.52
2024-01-15T00:04:32.246Z,85.52
2024-01-15T00:04:42.567Z,85.52
2024-01-15T00:04:52.877Z,85.52
2024-01-15T00:05:03.187Z,85.52
2024-01-15T00:05:13.694Z,85.52
2024-01-15T00:05:23.911Z,85.63
2024-01-15T00:05:34.168Z,85.63
2024-01-15T00:05:44.625Z,85.63
2024-01-15T00:05:54.861Z,85.63
2024-01-15T00:06:05.211Z,85.63
2024-01-15T00:06:15.508Z,85.63
2024-01-15T00:06:25.874Z,85.73
2024-01-15T00:06:36.239Z,85.63
2024-01-15T00:06:46.595Z,85.63
2024-01-15T00:06:56.977Z,85.63
2024-01-15T00:07:07.308Z,85.73
2024-01-15T00:07:17.560Z,85.73
2024-01-15T00:07:27.806Z,85.73
2024-01-15T00:07:38.280Z,85.73
2024-01-15T00:07:48.475Z,85.73
2024-01-15T00:07:58.935Z,85.73
2024-01-15T00:08:09.385Z,85.73
2024-01-15T00:08:19.844Z,85.73
2024-01-15T00:08:30.308Z,85.73
2024-01-15T00:08:40.762Z,85.73
2024-01-15T00:08:51.222Z,85.73
2024-01-15T00:09:01.682Z,85.73
2024-01-15T00:09:12.183Z,85.73
2024-01-15T00:09:22.400Z,85.73
2024-01-15T00:09:32.860Z,85.73
2024-01-15T00:09:43.370Z,85.73
2024-01-15T00:09:53.598Z,85.73
2024-01-15T00:10:04.069Z,85.73
2024-01-15T00:10:14.309Z,85.73
2024-01-15T00:10:24.547Z,85.73
2024-01-15T00:10:34.781Z,85.63
2024-01-15T00:10:45.233Z,85.63
2024-01-15T00:10:55.686Z,85.63
2024-01-15T00:11:06.154Z,85.63
2024-01-15T00:11:16.606Z,85.63
2024-01-15T00:11:27.093Z,85.73
2024-01-15T00:11:37.530Z,85.73
2024-01-15T00:11:47.977Z,85.73
2024-01-15T00:11:58.439Z,85.73
2024-01-15T00:12:08.941Z,85.73
2024-01-15T00:12:19.181Z,85.83
2024-01-15T00:12:29.450Z,85.83
2024-01-15T00:12:39.680Z,85.73
2024-01-15T00:12:50.261Z,85.73
2024-01-15T00:13:00.515Z,85.83
2024-01-15T00:13:10.965Z,85.73
2024-01-15T00:13:21.425Z,85.73
2024-01-15T00:13:31.886Z,85.73
2024-01-15T00:13:42.368Z,85.63
2024-01-15T00:13:52.594Z,85.63
2024-01-15T00:14:03.053Z,85.73
2024-01-15T00:14:13.523Z,85.73
2024-01-15T00:14:23.971Z,85.73
2024-01-15T00:14:34.438Z,85.73
2024-01-15T00:14:44.916Z,85.73
2024-01-15T00:14:55.147Z,85.73
2024-01-15T00:15:05.424Z,85.73
2024-01-15T00:15:15.633Z,85.83
2024-01-15T00:15:26.105Z,85.83
2024-01-15T00:15:36.626Z,85.83
2024-01-15T00:15:46.895Z,85.83
2024-01-15T00:15:57.197Z,85.83
2024-01-15T00:16:07.465Z,85.83
2024-01-15T00:16:17.662Z,85.83
2024-01-15T00:16:28.122Z,85.83
2024-01-15T00:16:38.589Z,85.83
2024-01-15T00:16:49.037Z,85.83
2024-01-15T00:16:59.496Z,85.83
2024-01-15T00:17:09.977Z,85.83
2024-01-15T00:17:20.202Z,85.83
2024-01-15T00:17:30.694Z,85.83
2024-01-15T00:17:41.002Z,85.83
2024-01-15T00:17:51.269Z,85.83
2024-01-15T00:18:01.593Z,85.94
2024-01-15T00:18:11.967Z,85.83
2024-01-15T00:18:22.236Z,85.94
2024-01-15T00:18:32.594Z,85.94
2024-01-15T00:18:42.914Z,85.94
2024-01-15T00:18:53.268Z,85.94
2024-01-15T00:19:03.606Z,85.94
2024-01-15T00:19:14.042Z,85.94
2024-01-15T00:19:24.119Z,85.94
2024-01-15T00:19:34.548Z,85.83
2024-01-15T00:19:44.895Z,85.83
2024-01-15T00:19:55.243Z,85.83
2024-01-15T00:20:05.598Z,85.83
2024-01-15T00:20:15.910Z,85.83
2024-01-15T00:20:27.675Z,85.83
2024-01-15T00:20:36.690Z,85.83
2024-01-15T00:20:47.146Z,85.83
2024-01-15T00:20:57.622Z,85.83
2024-01-15T00:21:08.131Z,85.83
2024-01-15T00:21:18.371Z,85.83
2024-01-15T00:21:28.667Z,85.83
2024-01-15T00:21:38.933Z,85.83
2024-01-15T00:21:49.302Z,85.83
2024-01-15T00:21:59.382Z,85.83
2024-01-15T00:22:09.834Z,85.83
2024-01-15T00:22:20.294Z,85.83
2024-01-15T00:22:30.771Z,85.83
2024-01-15T00:22:41.213Z,85.83
2024-01-15T00:22:51.675Z,85.83
2024-01-15T00:23:02.132Z,85.83
2024-01-15T00:23:12.590Z,85.83
2024-01-15T00:23:23.061Z,85.83
2024-01-15T00:23:33.346Z,85.83
2024-01-15T00:23:43.797Z,85.83
2024-01-15T00:23:54.311Z,85.83
2024-01-15T00:24:04.588Z,85.83
2024-01-15T00:24:14.804Z,85.83
2024-01-15T00:24:25.026Z,85.83
2024-01-15T00:24:35.505Z,85.83
2024-01-15T00:24:45.729Z,85.83
2024-01-15T00:24:56.218Z,85.83
2024-01-15T00:25:06.403Z,85.83
2024-01-15T00:25:16.875Z,85.83
2024-01-15T00:25:27.338Z,85.83
2024-01-15T00:25:37.784Z,85.83
2024-01-15T00:25:48.223Z,85.83
2024-01-15T00:25:58.687Z,85.83
2024-01-15T00:26:10.893Z,85.83
2024-01-15T00:26:19.423Z,85.83
2024-01-15T00:26:29.902Z,85.83
2024-01-15T00:26:40.364Z,85.83
2024-01-15T00:26:50.807Z,85.94
2024-01-15T00:27:01.258Z,85.94
2024-01-15T00:27:11.753Z,85.94
2024-01-15T00:27:22.200Z,85.94
2024-01-15T00:27:32.512Z,85.94
2024-01-15T00:27:42.811Z,85.94
2024-01-15T00:27:53.075Z,85.94
2024-01-15T00:28:03.345Z,85.94
2024-01-15T00:28:13.768Z,85.94
2024-01-15T00:28:24.227Z,85.83
2024-01-15T00:28:34.690Z,85.83
2024-01-15T00:28:45.144Z,85.83
2024-01-15T00:28:55.625Z,85.83
2024-01-15T00:29:05.845Z,85.83
2024-01-15T00:29:16.339Z,85.83
2024-01-15T00:29:29.471Z,85.83
2024-01-15T00:29:36.866Z,85.83
2024-01-15T00:29:47.320Z,85.83
2024-01-15T00:29:57.784Z,85.83
2024-01-15T00:30:08.303Z,85.83
2024-01-15T00:30:18.633Z,85.83
2024-01-15T00:30:39.437Z,85.94
2024-01-15T00:30:49.825Z,85.94
2024-01-15T00:31:00.106Z,85.94
2024-01-15T00:31:10.491Z,85.94
2024-01-15T00:31:20.874Z,85.94
2024-01-15T00:31:31.240Z,85.94
2024-01-15T00:31:41.586Z,86.05
2024-01-15T00:31:51.829Z,86.05
2024-01-15T00:32:02.258Z,86.05
2024-01-15T00:32:12.720Z,86.05
2024-01-15T00:32:23.300Z,86.05
2024-01-15T00:32:33.440Z,86.05
2024-01-15T00:32:43.749Z,86.05
2024-01-15T00:32:54.085Z,86.05
2024-01-15T00:33:04.523Z,86.05
2024-01-15T00:33:14.665Z,86.05
2024-01-15T00:33:25.053Z,86.05
2024-01-15T00:33:35.457Z,85.94
2024-01-15T00:33:45.876Z,85.94
2024-01-15T00:33:56.280Z,85.94
2024-01-15T00:34:06.675Z,85.94
2024-01-15T00:34:17.027Z,85.94
2024-01-15T00:34:27.367Z,85.94
2024-01-15T00:34:37.771Z,85.94
2024-01-15T00:34:48.272Z,85.94
2024-01-15T00:34:58.644Z,85.94
2024-01-15T00:35:08.882Z,85.94
2024-01-15T00:35:19.354Z,86.05
2024-01-15T00:35:29.797Z,86.05
2024-01-15T00:35:40.254Z,86.05
2024-01-15T00:35:50.712Z,86.05
2024-01-15T00:36:01.167Z,86.05
2024-01-15T00:36:11.662Z,86.05
2024-01-15T00:36:22.027Z,86.05
2024-01-15T00:36:32.503Z,86.05
2024-01-15T00:36:42.906Z,86.05
2024-01-15T00:36:53.165Z,86.05
2024-01-15T00:37:03.360Z,86.05
2024-01-15T00:37:13.818Z,86.05
2024-01-15T00:37:24.278Z,86.05
2024-01-15T00:37:34.742Z,86.05
2024-01-15T00:37:45.198Z,86.05
2024-01-15T00:37:55.652Z,86.05
2024-01-15T00:38:06.114Z,86.05
2024-01-15T00:38:16.583Z,86.05
2024-01-15T00:38:26.804Z,86.05
2024-01-15T00:38:37.324Z,86.05
2024-01-15T00:38:47.515Z,86.05
2024-01-15T00:38:57.980Z,86.05
2024-01-15T00:39:08.473Z,86.05
2024-01-15T00:39:18.716Z,86.05
2024-01-15T00:39:28.960Z,86.05
2024-01-15T00:39:39.518Z,86.05
2024-01-15T00:39:49.787Z,86.05
2024-01-15T00:39:59.999Z,86.05
2024-01-15T00:40:10.481Z,86.05
2024-01-15T00:40:20.916Z,86.05
2024-01-15T00:40:31.372Z,86.05
2024-01-15T00:40:41.840Z,86.05
2024-01-15T00:40:52.289Z,86.05
2024-01-15T00:41:02.757Z,86.05
2024-01-15T00:41:13.221Z,86.05
2024-01-15T00:41:23.663Z,86.05
2024-01-15T00:41:34.125Z,86.05
2024-01-15T00:41:44.599Z,86.05
2024-01-15T00:41:55.045Z,86.05
2024-01-15T00:42:05.549Z,86.05
2024-01-15T00:42:15.826Z,86.05
2024-01-15T00:42:26.061Z,86.05
2024-01-15T00:42:36.579Z,86.05
2024-01-15T00:42:46.903Z,86.05
2024-01-15T00:42:57.120Z,86.05
2024-01-15T00:43:07.348Z,86.05
2024-01-15T00:43:17.823Z,86.05
2024-01-15T00:43:28.053Z,86.05
2024-01-15T00:43:38.528Z,86.15
2024-01-15T00:43:48.965Z,86.15
2024-01-15T00:43:59.431Z,86.15
2024-01-15T00:44:09.880Z,86.15
2024-01-15T00:44:20.345Z,86.15
2024-01-15T00:44:30.805Z,86.25
2024-01-15T00:44:41.294Z,86.25
2024-01-15T00:44:51.718Z,86.25
2024-01-15T00:45:02.175Z,86.25
2024-01-15T00:45:12.820Z,86.25
2024-01-15T00:45:23.226Z,86.25
2024-01-15T00:45:33.467Z,86.25
2024-01-15T00:45:43.957Z,86.25
2024-01-15T00:45:54.176Z,86.25
2024-01-15T00:46:04.393Z,86.25
2024-01-15T00:46:14.839Z,86.25
2024-01-15T00:46:25.292Z,86.25
2024-01-15T00:46:35.755Z,86.25
2024-01-15T00:46:46.211Z,86.25
2024-01-15T00:46:56.675Z,86.25
2024-01-15T00:47:07.154Z,86.25
2024-01-15T00:47:17.596Z,86.36
2024-01-15T00:47:28.113Z,86.36
2024-01-15T00:47:38.409Z,86.36
2024-01-15T00:47:48.653Z,86.25
2024-01-15T00:47:58.921Z,86.25
2024-01-15T00:48:09.285Z,86.25
2024-01-15T00:48:19.591Z,86.36
2024-01-15T00:48:29.954Z,86.36
2024-01-15T00:48:40.359Z,86.36
2024-01-15T00:48:50.699Z,86.36
2024-01-15T00:49:01.103Z,86.36
2024-01-15T00:49:11.407Z,86.36
2024-01-15T00:49:21.844Z,86.36
2024-01-15T00:49:32.283Z,86.36
2024-01-15T00:49:42.660Z,86.36
2024-01-15T00:49:52.905Z,86.36
2024-01-15T00:50:03.362Z,86.36
2024-01-15T00:50:13.815Z,86.36
2024-01-15T00:50:24.083Z,86.36
2024-01-15T00:50:34.539Z,86.36
2024-01-15T00:50:45.005Z,86.36
2024-01-15T00:50:55.469Z,86.36
2024-01-15T00:51:05.993Z,86.36
2024-01-15T00:51:16.237Z,86.36
2024-01-15T00:51:26.523Z,86.36
2024-01-15T00:51:36.745Z,86.36
2024-01-15T00:51:47.050Z,86.36
2024-01-15T00:51:57.268Z,86.36
2024-01-15T00:52:07.738Z,86.36
2024-01-15T00:52:18.198Z,86.36
2024-01-15T00:52:28.435Z,86.36
2024-01-15T00:52:38.669Z,86.36
2024-01-15T00:52:48.910Z,86.36
2024-01-15T00:52:59.353Z,86.36
2024-01-15T00:53:09.809Z,86.36
2024-01-15T00:53:20.270Z,86.36
2024-01-15T00:53:30.741Z,86.36
2024-01-15T00:53:41.193Z,86.46
2024-01-15T00:53:51.664Z,86.46
2024-01-15T00:54:02.107Z,86.46
2024-01-15T00:54:12.362Z,86.46
2024-01-15T00:54:22.852Z,86.46
2024-01-15T00:54:33.069Z,86.46
2024-01-15T00:54:43.538Z,86.46
2024-01-15T00:54:53.794Z,86.46
2024-01-15T00:55:03.986Z,86.57
2024-01-15T00:55:14.463Z,86.57
2024-01-15T00:55:24.920Z,86.57
2024-01-15T00:55:35.363Z,86.57
2024-01-15T00:55:45.822Z,86.57
2024-01-15T00:55:56.384Z,86.57
2024-01-15T00:56:06.630Z,86.57
2024-01-15T00:56:17.093Z,86.57
2024-01-15T00:56:27.549Z,86.67
2024-01-15T00:56:38.010Z,86.67
2024-01-15T00:56:48.468Z,86.67
2024-01-15T00:56:58.936Z,86.67
2024-01-15T00:57:09.241Z,86.67
2024-01-15T00:57:19.499Z,86.57
2024-01-15T00:57:29.720Z,86.57
2024-01-15T00:57:40.196Z,86.57
2024-01-15T00:57:50.655Z,86.57
2024-01-15T00:58:00.939Z,86.57
2024-01-15T00:58:11.403Z,86.57
2024-01-15T00:58:21.856Z,86.57
2024-01-15T00:58:32.316Z,86.57
2024-01-15T00:58:42.770Z,86.57
2024-01-15T00:58:53.233Z,86.57
2024-01-15T00:59:03.694Z,86.46
2024-01-15T00:59:14.150Z,86.46
2024-01-15T00:59:24.608Z,86.46
2024-01-15T00:59:35.078Z,86.46
2024-01-15T00:59:45.546Z,86.46
2024-01-15T00:59:55.994Z,86.46
2024-01-15T01:00:07.066Z,86.46
2024-01-15T01:00:17.043Z,86.46
2024-01-15T01:00:27.333Z,86.46
2024-01-15T01:00:37.665Z,86.46
2024-01-15T01:00:47.986Z,86.46
2024-01-15T01:00:58.358Z,86.46
2024-01-15T01:01:08.754Z,86.46
2024-01-15T01:01:19.108Z,86.46
2024-01-15T01:01:29.460Z,86.46
2024-01-15T01:01:39.725Z,86.46
2024-01-15T01:01:50.081Z,86.46
2024-01-15T01:02:00.301Z,86.46
2024-01-15T01:02:10.775Z,86.46
2024-01-15T01:02:20.983Z,86.57
2024-01-15T01:02:31.443Z,86.57
2024-01-15T01:02:41.919Z,86.57
2024-01-15T01:02:52.406Z,86.57
2024-01-15T01:03:02.673Z,86.57
2024-01-15T01:03:12.970Z,86.46
2024-01-15T01:03:23.303Z,86.46
2024-01-15T01:03:33.654Z,86.46
2024-01-15T01:03:44.041Z,86.46
2024-01-15T01:03:54.478Z,86.46
2024-01-15T01:04:04.828Z,86.46
2024-01-15T01:04:15.206Z,86.46
2024-01-15T01:04:25.549Z,86.46
2024-01-15T01:04:35.835Z,86.46
2024-01-15T01:04:46.282Z,86.46
2024-01-15T01:04:56.762Z,86.46
2024-01-15T01:05:07.010Z,86.46
2024-01-15T01:05:17.538Z,86.46
2024-01-15T01:05:27.796Z,86.46
2024-01-15T01:05:38.018Z,86.46
2024-01-15T01:05:48.509Z,86.46
2024-01-15T01:05:58.804Z,86.46
2024-01-15T01:06:09.029Z,86.46
2024-01-15T01:06:19.520Z,86.46
2024-01-15T01:06:31.395Z,86.46
2024-01-15T01:06:40.092Z,86.46
2024-01-15T01:06:50.381Z,86.46
2024-01-15T01:07:00.624Z,86.46
2024-01-15T01:07:11.056Z,86.46
2024-01-15T01:07:21.539Z,86.46
2024-01-15T01:07:31.968Z,86.46
2024-01-15T01:07:42.464Z,86.46
2024-01-15T01:07:52.887Z,86.46
2024-01-15T01:08:03.353Z,86.46
2024-01-15T01:08:13.804Z,86.46
2024-01-15T01:08:24.270Z,86.46
2024-01-15T01:08:34.731Z,86.46
2024-01-15T01:08:45.187Z,86.57
2024-01-15T01:08:55.646Z,86.57
2024-01-15T01:09:06.135Z,86.57
2024-01-15T01:09:16.470Z,86.57
2024-01-15T01:09:26.825Z,86.67
2024-01-15T01:09:37.066Z,86.67
2024-01-15T01:09:47.345Z,86.57
2024-01-15T01:09:57.570Z,86.57
2024-01-15T01:10:08.011Z,86.57
2024-01-15T01:10:18.488Z,86.57
2024-01-15T01:10:28.956Z,86.57
2024-01-15T01:10:39.403Z,86.57
2024-01-15T01:10:49.850Z,86.57
2024-01-15T01:11:00.338Z,86.67
2024-01-15T01:11:10.551Z,86.67
2024-01-15T01:11:21.022Z,86.67
2024-01-15T01:11:31.245Z,86.67
2024-01-15T01:11:41.708Z,86.57
2024-01-15T01:11:52.163Z,86.57
2024-01-15T01:12:02.635Z,86.57
2024-01-15T01:12:13.114Z,86.67
2024-01-15T01:12:23.373Z,86.67
2024-01-15T01:12:33.624Z,86.67
2024-01-15T01:12:44.098Z,86.67
2024-01-15T01:12:54.338Z,86.67
2024-01-15T01:13:04.766Z,86.67
2024-01-15T01:13:15.232Z,86.67
2024-01-15T01:13:25.691Z,86.77
2024-01-15T01:13:36.145Z,86.77
2024-01-15T01:13:46.604Z,86.77
2024-01-15T01:13:57.081Z,86.77
2024-01-15T01:14:07.523Z,86.67
2024-01-15T01:14:17.981Z,86.67
2024-01-15T01:14:28.224Z,86.67
2024-01-15T01:14:38.670Z,86.67
2024-01-15T01:14:49.143Z,86.67
2024-01-15T01:14:59.595Z,86.67
2024-01-15T01:15:10.084Z,86.67
2024-01-15T01:15:20.541Z,86.67
2024-01-15T01:15:31.065Z,86.67
2024-01-15T01:15:41.325Z,86.67
2024-01-15T01:15:51.633Z,86.57
2024-01-15T01:16:01.890Z,86.57
2024-01-15T01:16:12.146Z,86.57
2024-01-15T01:16:22.575Z,86.57
2024-01-15T01:16:33.034Z,86.57
2024-01-15T01:16:43.485Z,86.57
2024-01-15T01:16:53.947Z,86.57
2024-01-15T01:17:04.408Z,86.57
2024-01-15T01:17:14.875Z,86.67
2024-01-15T01:17:25.572Z,86.67
2024-01-15T01:17:35.722Z,86.67
2024-01-15T01:17:46.073Z,86.67
2024-01-15T01:17:56.400Z,86.67
2024-01-15T01:18:06.848Z,86.67
2024-01-15T01:18:17.046Z,86.67
2024-01-15T01:18:27.550Z,86.67
2024-01-15T01:18:37.988Z,86.67
2024-01-15T01:18:48.230Z,86.67
2024-01-15T01:18:58.732Z,86.67
2024-01-15T01:19:09.392Z,86.67
2024-01-15T01:19:19.619Z,86.57
2024-01-15T01:19:29.872Z,86.67
2024-01-15T01:19:40.330Z,86.67
2024-01-15T01:19:50.508Z,86.67
2024-01-15T01:20:01.075Z,86.67
2024-01-15T01:20:11.422Z,86.67
2024-01-15T01:20:21.672Z,86.67
2024-01-15T01:20:32.069Z,86.57
2024-01-15T01:20:42.151Z,86.57
2024-01-15T01:20:52.372Z,86.57
2024-01-15T01:21:02.845Z,86.57
2024-01-15T01:21:13.330Z,86.57
2024-01-15T01:21:23.794Z,86.57
2024-01-15T01:21:34.059Z,86.57
2024-01-15T01:21:44.344Z,86.57
2024-01-15T01:21:54.589Z,86.57
2024-01-15T01:22:05.025Z,86.57
2024-01-15T01:22:15.484Z,86.57
2024-01-15T01:22:25.968Z,86.57
2024-01-15T01:22:36.213Z,86.57
2024-01-15T01:22:46.669Z,86.57
2024-01-15T01:22:57.116Z,86.57
2024-01-15T01:23:07.576Z,86.57
2024-01-15T01:23:18.034Z,86.57
2024-01-15T01:23:28.500Z,86.57
2024-01-15T01:23:38.958Z,86.57
2024-01-15T01:23:49.413Z,86.46
2024-01-15T01:23:59.873Z,86.57
2024-01-15T01:24:10.357Z,86.46
2024-01-15T01:24:20.585Z,86.46
2024-01-15T01:24:31.058Z,86.46
2024-01-15T01:24:41.574Z,86.57
2024-01-15T01:24:51.780Z,86.57
2024-01-15T01:25:02.051Z,86.57
2024-01-15T01:25:12.301Z,86.57
2024-01-15T01:25:22.558Z,86.57
2024-01-15T01:25:32.804Z,86.57
2024-01-15T01:25:43.024Z,86.57
2024-01-15T01:25:53.482Z,86.67
2024-01-15T01:26:03.741Z,86.67
2024-01-15T01:26:14.212Z,86.67
2024-01-15T01:26:24.662Z,86.67
2024-01-15T01:26:35.127Z,86.67
2024-01-15T01:26:45.584Z,86.67
2024-01-15T01:26:56.044Z,86.67
2024-01-15T01:27:06.518Z,86.67
2024-01-15T01:27:17.031Z,86.67
2024-01-15T01:27:27.288Z,86.67
2024-01-15T01:27:37.533Z,86.67
2024-01-15T01:27:47.789Z,86.57
2024-01-15T01:27:57.999Z,86.57
2024-01-15T01:28:08.452Z,86.57
2024-01-15T01:28:18.918Z,86.57
2024-01-15T01:28:29.381Z,86.57
2024-01-15T01:28:39.605Z,86.67
2024-01-15T01:28:50.063Z,86.57
2024-01-15T01:29:00.515Z,86.57
2024-01-15T01:29:10.980Z,86.67
2024-01-15T01:29:21.436Z,86.57
2024-01-15T01:29:31.918Z,86.57
2024-01-15T01:29:42.372Z,86.57
2024-01-15T01:29:52.584Z,86.57
2024-01-15T01:30:03.156Z,86.57
2024-01-15T01:30:13.499Z,86.57
2024-01-15T01:30:23.868Z,86.67
2024-01-15T01:30:34.173Z,86.67
2024-01-15T01:30:44.540Z,86.67
2024-01-15T01:30:54.848Z,86.67
2024-01-15T01:31:05.170Z,86.67
2024-01-15T01:31:15.562Z,86.67
2024-01-15T01:31:25.877Z,86.67
2024-01-15T01:31:36.167Z,86.67
2024-01-15T01:31:46.652Z,86.67
2024-01-15T01:31:56.710Z,86.67
2024-01-15T01:32:07.150Z,86.67
2024-01-15T01:32:17.691Z,86.67
2024-01-15T01:32:27.938Z,86.67
2024-01-15T01:32:38.167Z,86.67
2024-01-15T01:32:48.636Z,86.67
2024-01-15T01:32:58.883Z,86.67
2024-01-15T01:33:09.525Z,86.67
2024-01-15T01:33:19.825Z,86.67
2024-01-15T01:33:29.923Z,86.67
2024-01-15T01:33:40.219Z,86.67
2024-01-15T01:33:50.575Z,86.67
2024-01-15T01:34:00.836Z,86.67
2024-01-15T01:34:11.146Z,86.67
2024-01-15T01:34:21.471Z,86.77
2024-01-15T01:34:34.692Z,86.77
2024-01-15T01:34:42.172Z,86.77
2024-01-15T01:34:52.415Z,86.77
2024-01-15T01:35:02.627Z,86.77
2024-01-15T01:35:13.089Z,86.77
2024-01-15T01:35:23.553Z,86.77
2024-01-15T01:35:34.020Z,86.77
2024-01-15T01:35:44.469Z,86.88
2024-01-15T01:35:54.924Z,86.77
2024-01-15T01:36:05.255Z,86.77
2024-01-15T01:36:15.751Z,86.77
2024-01-15T01:36:25.988Z,86.77
2024-01-15T01:36:36.253Z,86.77
2024-01-15T01:36:46.570Z,86.77
2024-01-15T01:36:56.756Z,86.77
2024-01-15T01:37:07.215Z,86.77
2024-01-15T01:37:17.673Z,86.77
2024-01-15T01:37:28.138Z,86.77
2024-01-15T01:37:38.592Z,86.77
2024-01-15T01:37:49.075Z,86.77
2024-01-15T01:37:59.511Z,86.77
2024-01-15T01:38:09.979Z,86.77
2024-01-15T01:38:20.436Z,86.77
2024-01-15T01:38:30.895Z,86.77
2024-01-15T01:38:41.382Z,86.77
2024-01-15T01:38:51.814Z,86.77
2024-01-15T01:39:02.299Z,86.77
2024-01-15T01:39:12.552Z,86.77
2024-01-15T01:39:23.015Z,86.77
2024-01-15T01:39:33.273Z,86.67
2024-01-15T01:39:43.843Z,86.67
2024-01-15T01:39:54.123Z,86.67
2024-01-15T01:40:04.567Z,86.77
2024-01-15T01:40:15.006Z,86.67
2024-01-15T01:40:25.470Z,86.77
2024-01-15T01:40:35.922Z,86.67
2024-01-15T01:40:46.399Z,86.77
2024-01-15T01:40:56.849Z,86.67
2024-01-15T01:41:07.302Z,86.67
2024-01-15T01:41:17.761Z,86.67
2024-01-15T01:41:28.217Z,86.67
2024-01-15T01:41:38.709Z,86.67
2024-01-15T01:41:49.136Z,86.67
2024-01-15T01:41:59.597Z,86.77
2024-01-15T01:42:10.089Z,86.67
2024-01-15T01:42:20.433Z,86.67
2024-01-15T01:42:30.716Z,86.67
2024-01-15T01:42:40.963Z,86.67
2024-01-15T01:42:51.213Z,86.67
2024-01-15T01:43:01.435Z,86.67
2024-01-15T01:43:11.886Z,86.67
2024-01-15T01:43:22.348Z,86.67
2024-01-15T01:43:32.810Z,86.67
2024-01-15T01:43:43.276Z,86.67
2024-01-15T01:43:53.502Z,86.67
2024-01-15T01:44:04.000Z,86.67
2024-01-15T01:44:14.199Z,86.67
2024-01-15T01:44:24.656Z,86.67
2024-01-15T01:44:35.114Z,86.67
2024-01-15T01:44:45.608Z,86.67
2024-01-15T01:44:55.808Z,86.67
2024-01-15T01:45:06.330Z,86.77
2024-01-15T01:45:16.567Z,86.77
2024-01-15T01:45:26.808Z,86.77
2024-01-15T01:45:37.291Z,86.77
2024-01-15T01:45:47.590Z,86.77
2024-01-15T01:45:58.034Z,86.77
2024-01-15T01:46:08.127Z,86.77
2024-01-15T01:46:18.609Z,86.77
2024-01-15T01:46:29.045Z,86.77
2024-01-15T01:46:39.504Z,86.77
2024-01-15T01:46:49.962Z,86.77
2024-01-15T01:47:00.421Z,86.77
2024-01-15T01:47:10.892Z,86.77
2024-01-15T01:47:21.362Z,86.88
2024-01-15T01:47:31.624Z,86.88
2024-01-15T01:47:42.129Z,86.88
2024-01-15T01:47:52.423Z,86.88
2024-01-15T01:48:02.743Z,86.88
2024-01-15T01:48:13.262Z,86.88
2024-01-15T01:48:23.461Z,86.88
2024-01-15T01:48:33.901Z,86.88
2024-01-15T01:48:44.043Z,86.99
2024-01-15T01:48:54.316Z,86.88
2024-01-15T01:49:04.692Z,86.88
2024-01-15T01:49:14.971Z,86.88
2024-01-15T01:49:25.262Z,86.88
2024-01-15T01:49:35.644Z,86.88
2024-01-15T01:49:46.108Z,86.88
2024-01-15T01:49:56.198Z,86.88
2024-01-15T01:50:06.453Z,86.88
2024-01-15T01:50:16.890Z,86.88
2024-01-15T01:50:27.353Z,86.88
2024-01-15T01:50:37.821Z,86.88
2024-01-15T01:50:48.285Z,86.88
2024-01-15T01:50:58.746Z,86.88
2024-01-15T01:51:09.263Z,86.88
2024-01-15T01:51:19.518Z,86.88
2024-01-15T01:51:30.035Z,86.88
2024-01-15T01:51:40.308Z,86.88
2024-01-15T01:51:50.575Z,86.88
2024-01-15T01:52:00.787Z,86.88
2024-01-15T01:52:11.228Z,86.88
2024-01-15T01:52:21.688Z,86.88
2024-01-15T01:52:32.161Z,86.88
2024-01-15T01:52:42.609Z,86.88
2024-01-15T01:52:53.131Z,86.88
2024-01-15T01:53:03.408Z,86.88
2024-01-15T01:53:13.625Z,86.88
2024-01-15T01:53:23.859Z,86.88
2024-01-15T01:53:34.081Z,86.88
2024-01-15T01:53:44.539Z,86.88
2024-01-15T01:53:55.002Z,86.88
2024-01-15T01:54:05.477Z,86.88
2024-01-15T01:54:15.700Z,86.88
2024-01-15T01:54:26.213Z,86.88
2024-01-15T01:54:36.494Z,86.88
2024-01-15T01:54:46.775Z,86.88
2024-01-15T01:54:57.005Z,86.88
2024-01-15T01:55:07.236Z,86.88
2024-01-15T01:55:17.680Z,86.88
2024-01-15T01:55:28.149Z,86.88
2024-01-15T01:55:38.598Z,86.88
2024-01-15T01:55:49.090Z,86.88
2024-01-15T01:55:59.514Z,86.88
2024-01-15T01:56:09.974Z,86.88
2024-01-15T01:56:20.434Z,86.88
2024-01-15T01:56:30.892Z,86.99
2024-01-15T01:56:41.350Z,86.99
2024-01-15T01:56:51.813Z,86.99
2024-01-15T01:57:02.265Z,86.99
2024-01-15T01:57:12.743Z,86.99
2024-01-15T01:57:23.223Z,87.09
2024-01-15T01:57:33.502Z,86.99
2024-01-15T01:57:43.745Z,87.09
2024-01-15T01:57:54.002Z,87.09
2024-01-15T01:58:04.194Z,87.09
2024-01-15T01:58:14.662Z,87.09
2024-01-15T01:58:25.111Z,87.09
2024-01-15T01:58:35.597Z,87.09
2024-01-15T01:58:46.052Z,87.09
2024-01-15T01:58:56.495Z,87.09
2024-01-15T01:59:06.961Z,87.09
2024-01-15T01:59:17.406Z,87.09
2024-01-15T01:59:27.864Z,87.09
2024-01-15T01:59:38.341Z,87.09
2024-01-15T01:59:48.785Z,87.09
2024-01-15T01:59:59.246Z,87.09
2024-01-15T02:00:09.738Z,87.09
2024-01-15T02:00:20.002Z,87.09
2024-01-15T02:00:30.290Z,87.09
2024-01-15T02:00:40.612Z,87.09
2024-01-15T02:00:51.082Z,87.09
2024-01-15T02:01:01.379Z,87.09
2024-01-15T02:01:11.574Z,87.09
2024-01-15T02:01:21.843Z,87.09
2024-01-15T02:01:32.064Z,87.09
2024-01-15T02:01:42.510Z,87.09
2024-01-15T02:01:52.759Z,87.09
2024-01-15T02:02:03.215Z,87.09
2024-01-15T02:02:13.687Z,87.09
2024-01-15T02:02:23.910Z,87.19
2024-01-15T02:02:34.387Z,87.09
2024-01-15T02:02:44.624Z,87.09
2024-01-15T02:02:55.067Z,87.09
2024-01-15T02:03:05.559Z,87.09
2024-01-15T02:03:15.808Z,87.09
2024-01-15T02:03:26.271Z,87.09
2024-01-15T02:03:36.878Z,87.09
2024-01-15T02:03:47.058Z,87.09
2024-01-15T02:03:57.319Z,87.09
2024-01-15T02:04:07.616Z,87.09
2024-01-15T02:04:21.921Z,87.09
2024-01-15T02:04:28.336Z,87.19
2024-01-15T02:04:38.617Z,87.19
2024-01-15T02:04:48.864Z,87.19
2024-01-15T02:04:59.289Z,87.30
2024-01-15T02:05:09.501Z,87.30
2024-01-15T02:05:19.965Z,87.30
2024-01-15T02:05:30.420Z,87.30
2024-01-15T02:05:40.906Z,87.30
2024-01-15T02:05:51.364Z,87.30
2024-01-15T02:06:02.035Z,87.30
2024-01-15T02:06:12.119Z,87.40
2024-01-15T02:06:22.425Z,87.40
2024-01-15T02:06:32.736Z,87.51
2024-01-15T02:06:43.212Z,87.51
2024-01-15T02:06:53.461Z,87.51
2024-01-15T02:07:03.542Z,87.51
2024-01-15T02:07:13.997Z,87.51
2024-01-15T02:07:24.286Z,87.51
2024-01-15T02:07:34.518Z,87.51
2024-01-15T02:07:44.977Z,87.51
2024-01-15T02:07:55.454Z,87.40
2024-01-15T02:08:05.911Z,87.40
2024-01-15T02:08:16.364Z,87.40
2024-01-15T02:08:26.815Z,87.40
2024-01-15T02:08:37.279Z,87.51
2024-01-15T02:08:47.734Z,87.51
2024-01-15T02:08:58.194Z,87.51
2024-01-15T02:09:08.708Z,87.51
2024-01-15T02:09:18.966Z,87.61
2024-01-15T02:09:29.210Z,87.61
2024-01-15T02:09:39.526Z,87.61
2024-01-15T02:09:49.840Z,87.61
2024-01-15T02:10:00.072Z,87.61
2024-01-15T02:10:10.526Z,87.61
2024-01-15T02:10:20.991Z,87.61
2024-01-15T02:10:31.442Z,87.61
2024-01-15T02:10:41.901Z,87.61
2024-01-15T02:10:52.371Z,87.61
2024-01-15T02:11:02.821Z,87.61
2024-01-15T02:11:13.274Z,87.61
2024-01-15T02:11:23.735Z,87.61
2024-01-15T02:11:33.987Z,87.61
2024-01-15T02:11:44.212Z,87.61
2024-01-15T02:11:54.697Z,87.61
2024-01-15T02:12:04.935Z,87.61
2024-01-15T02:12:15.408Z,87.71
2024-01-15T02:12:25.872Z,87.71
2024-01-15T02:12:36.350Z,87.71
2024-01-15T02:12:46.662Z,87.71
2024-01-15T02:12:56.867Z,87.71
2024-01-15T02:13:07.329Z,87.71
2024-01-15T02:13:17.784Z,87.71
2024-01-15T02:13:28.246Z,87.61
2024-01-15T02:13:38.724Z,87.61
2024-01-15T02:13:49.164Z,87.61